Minerva Libra — SVAA7 — position and weather

sailwx.info

Track history (hours):
 
Tides and Currents Weather Stations Pressure Air Temp Water Temp Dewpoint Dewpoint Depression Visibility Wind Speed Wind Dir Waves Ship Positions

Minerva Libra

Last reported at 2017-Jan-12 16:33 UTC. Time now 2017-Jan-16 21:55 UTC.
Position N 36°54' W 000°35'.

Length 250 m; draft 8 m.

Type: Ship. MMSI: 240766000.

Date/timePositionNaut miles runAvg speedWind from/ knotsBaromVisibWave heightAir tempDewpointWater temp
2017-Jan-12 16:33N 36°54' W 000°35'1111.4
2017-Jan-12 15:33N 37°05' W 000°40'1111.2
2017-Jan-12 14:33N 37°15' W 000°45'1111.5
2017-Jan-12 13:33N 37°24' W 000°54'11 9.6
2017-Jan-12 12:27N 37°33' W 001°02'0 0.0
2017-Jan-12 01:24N 37°33' W 001°03'0 0.0
2017-Jan-11 20:29N 37°33' W 001°03'0 0.0
2017-Jan-11 19:29N 37°33' W 001°03'0 0.0
2017-Jan-11 18:29N 37°33' W 001°03'0 0.0
2017-Jan-11 17:23N 37°33' W 001°03'0 0.0
2017-Jan-11 15:24N 37°33' W 001°03'0 0.0
2017-Jan-11 14:30N 37°33' W 001°03'0 0.0
2017-Jan-11 13:17N 37°33' W 001°03'0 0.0
2017-Jan-11 12:23N 37°33' W 001°03'0 0.0
2017-Jan-11 11:05N 37°33' W 001°03'1 0.1
2017-Jan-10 22:23N 37°33' W 001°01'3 0.1
2017-Jan-09 12:14N 37°34' W 000°58'2 2.5
2017-Jan-09 11:33N 37°34' W 001°00'21911.5
2017-Jan-08 16:31N 36°06' W 005°11'1010.1
2017-Jan-08 15:33N 36°07' W 005°22'0 0.1
2017-Jan-08 11:09N 36°07' W 005°22'0 0.1
2017-Jan-08 07:12N 36°07' W 005°22'0 0.1
2017-Jan-08 06:24N 36°07' W 005°22'0 0.0
2017-Jan-08 05:33N 36°07' W 005°22'0 0.1
2017-Jan-08 04:28N 36°07' W 005°22'4 4.3
2017-Jan-08 03:33N 36°03' W 005°21'1110.5
2017-Jan-08 02:33N 35°57' W 005°32'  
Track history (hours):
 
Tides and Currents Weather Stations Pressure Air Temp Water Temp Dewpoint Dewpoint Depression Visibility Wind Speed Wind Dir Waves Ship Positions

Minerva Libra

Last reported at 2017-Jan-12 16:33 UTC. Time now 2017-Jan-16 21:55 UTC.
Position N 36°54' W 000°35'.

Length 250 m; draft 8 m.

Type: Ship. MMSI: 240766000.

Date/timePositionNaut miles runAvg speedWind from/ knotsBaromVisibWave heightAir tempDewpointWater temp
2017-Jan-12 16:33N 36°54' W 000°35'1111.4
2017-Jan-12 15:33N 37°05' W 000°40'1111.2
2017-Jan-12 14:33N 37°15' W 000°45'1111.5
2017-Jan-12 13:33N 37°24' W 000°54'11 9.6
2017-Jan-12 12:27N 37°33' W 001°02'0 0.0
2017-Jan-12 01:24N 37°33' W 001°03'0 0.0
2017-Jan-11 20:29N 37°33' W 001°03'0 0.0
2017-Jan-11 19:29N 37°33' W 001°03'0 0.0
2017-Jan-11 18:29N 37°33' W 001°03'0 0.0
2017-Jan-11 17:23N 37°33' W 001°03'0 0.0
2017-Jan-11 15:24N 37°33' W 001°03'0 0.0
2017-Jan-11 14:30N 37°33' W 001°03'0 0.0
2017-Jan-11 13:17N 37°33' W 001°03'0 0.0
2017-Jan-11 12:23N 37°33' W 001°03'0 0.0
2017-Jan-11 11:05N 37°33' W 001°03'1 0.1
2017-Jan-10 22:23N 37°33' W 001°01'3 0.1
2017-Jan-09 12:14N 37°34' W 000°58'2 2.5
2017-Jan-09 11:33N 37°34' W 001°00'21911.5
2017-Jan-08 16:31N 36°06' W 005°11'1010.1
2017-Jan-08 15:33N 36°07' W 005°22'0 0.1
2017-Jan-08 11:09N 36°07' W 005°22'0 0.1
2017-Jan-08 07:12N 36°07' W 005°22'0 0.1
2017-Jan-08 06:24N 36°07' W 005°22'0 0.0
2017-Jan-08 05:33N 36°07' W 005°22'0 0.1
2017-Jan-08 04:28N 36°07' W 005°22'4 4.3
2017-Jan-08 03:33N 36°03' W 005°21'1110.5
2017-Jan-08 02:33N 35°57' W 005°32'  

Dump ship's entire track history